Aérodrome :
LOGIN :

S'inscrire | Disclaimer

   EN    FR    IT 

 










Légende :    VFR   VFR Marginal   IFR   IFR Intensif   IFR Très Intensif
Visi : 
Plafond : 
>= 8 km
>= 3000ft
5 à 8 km
1000 à 3000 ft
1500m à 5 km
500 à 1000 ft
800 à 1500m
200 à 500 ft
< 800m
< 200 ft
Symboles :   Orages  Brouillard  Fortes neiges  Fortes précipitations  Vent > 20 kt
SIGMETs :   Divers  Orages  Givrage  Turbulence  Onde Orograph.  Cendres Volcan.






- Altitude de l'aérodrome : 0 ft


ENOA - Oseberg A Platform

DERNIER METAR :
  • 261720Z 16033KT 7000 -RA OVC010 03/02 Q0990 W///S5

METARs EXPIRÉS :
  • 261650Z 17028KT 8000 -RASN BKN010 03/02 Q0990 W///S5
  • 261620Z 15030KT 8000 -RA BKN010 03/02 Q0989 W///S5
  • 261550Z 17030KT 6000 -SHRASN BKN010 03/02 Q0989 W///S5
  • 261520Z 16030KT 5000 -SHRAGS SCT010CB BKN020 03/02 Q0990 W///S5
  • 261450Z 15029KT 5000 -DZ SCT007 BKN025 02/01 Q0990 W///S5
  • 261420Z 15029KT 9999 VCSH FEW010 BKN018 02/01 Q0990 W///S5

TAF ENOA
Valide du 26 à 15h jusqu'au 27 à 15h UTC


2615/2715 16030KT 9999 -SHRA FEW012CB BKN030
TEMPO 2615/2715 1200 SHSNRA VV006
BECMG 2620/2623 23020KT



MET'MAP, la Météo Aéronautique d'un coup d'oeil ! - Copyright ORBIFLY Décembre 2007 - Disclaimer

ORBIFLY MET'MAP TEAM :

Programmation & Développement : Alexandra Zaïnal
Sur une idée originale de : Baudouin d'Aumeries
Assistance à la programmation : Marc-Olivier Méhu
Soutien technique & logistique : Manuel Goepfert

Contact : metmap@orbifly.com




SOURCES & CREDITS :

   NOAA